Time;durP1;ratioP1;P1;durP2;ratioP2;P2;SDS_P1;SDS_P2;PMS_P1;PMS_P2;Temp;Humidity;BMP_temperature;BMP_pressure;BME280_temperature;BME280_humidity;BME280_pressure;Samples;Min_cycle;Max_cycle;Signal;HPM_P1;HPM_P2
2023/12/17 00:00:00;;;;;;;24.50;11.88;;;;;;;;;;5088380;28;20044;-71
2023/12/17 00:02:27;;;;;;;24.85;11.70;;;;;;;;;;5088388;28;20062;-69
2023/12/17 00:04:54;;;;;;;20.98;10.82;;;;;;;;;;5088615;28;20044;-71
2023/12/17 00:07:20;;;;;;;22.77;10.38;;;;;;;;;;5088758;28;20136;-71
2023/12/17 00:09:47;;;;;;;21.30;10.82;;;;;;;;;;5088251;28;20055;-71
2023/12/17 00:12:14;;;;;;;21.40;10.30;;;;;;;;;;5088437;28;20051;-71
2023/12/17 00:14:41;;;;;;;23.17;10.70;;;;;;;;;;5088402;28;20047;-71
2023/12/17 00:17:10;;;;;;;18.77;9.05;;;;;;;;;;5088420;28;20139;-71
2023/12/17 00:19:36;;;;;;;17.10;8.48;;;;;;;;;;5088222;28;20476;-71
2023/12/17 00:22:03;;;;;;;17.52;9.45;;;;;;;;;;5088581;28;20050;-70
2023/12/17 00:24:30;;;;;;;15.25;8.35;;;;;;;;;;5087917;28;20059;-71
2023/12/17 00:26:57;;;;;;;17.55;9.00;;;;;;;;;;5088446;28;20048;-71
2023/12/17 00:29:24;;;;;;;18.98;9.48;;;;;;;;;;5088594;28;20044;-71
2023/12/17 00:31:51;;;;;;;16.67;9.05;;;;;;;;;;5088281;28;20048;-71
2023/12/17 00:34:26;;;;;;;16.83;8.75;;;;;;;;;;5087997;28;20052;-71
2023/12/17 00:36:54;;;;;;;18.10;9.50;;;;;;;;;;5088340;28;20051;-71
2023/12/17 00:39:20;;;;;;;16.45;8.70;;;;;;;;;;5088148;28;20105;-70
2023/12/17 00:41:47;;;;;;;14.85;8.48;;;;;;;;;;5092182;28;20123;-71
2023/12/17 00:44:14;;;;;;;15.38;7.97;;;;;;;;;;5092112;28;20499;-71
2023/12/17 00:46:40;;;;;;;15.88;7.90;;;;;;;;;;5092237;28;20052;-71
2023/12/17 00:49:07;;;;;;;14.60;7.10;;;;;;;;;;5092640;28;20055;-71
2023/12/17 00:51:34;;;;;;;17.55;8.77;;;;;;;;;;5092095;28;20040;-71
2023/12/17 00:54:01;;;;;;;16.15;7.93;;;;;;;;;;5091688;28;20604;-71
2023/12/17 00:56:28;;;;;;;15.98;8.60;;;;;;;;;;5091642;28;20048;-71
2023/12/17 00:58:54;;;;;;;12.85;7.40;;;;;;;;;;5092075;28;20571;-71
2023/12/17 01:01:21;;;;;;;15.70;7.93;;;;;;;;;;5091850;28;20532;-71
2023/12/17 01:03:48;;;;;;;14.25;8.32;;;;;;;;;;5092124;28;20076;-71
2023/12/17 01:06:15;;;;;;;14.38;7.65;;;;;;;;;;5091980;28;20052;-71
2023/12/17 01:08:41;;;;;;;16.92;7.93;;;;;;;;;;5091578;28;20090;-71
2023/12/17 01:11:08;;;;;;;18.30;8.88;;;;;;;;;;5091972;28;20052;-71
2023/12/17 01:13:35;;;;;;;13.73;7.50;;;;;;;;;;5091795;28;20044;-70
2023/12/17 01:16:04;;;;;;;15.65;8.88;;;;;;;;;;5091641;28;20127;-71
2023/12/17 01:18:32;;;;;;;17.92;7.78;;;;;;;;;;5091690;28;20087;-71
2023/12/17 01:21:02;;;;;;;21.55;8.77;;;;;;;;;;5091418;28;20444;-71
2023/12/17 01:23:29;;;;;;;17.05;8.27;;;;;;;;;;5073641;28;20048;-71
2023/12/17 01:25:56;;;;;;;18.88;8.57;;;;;;;;;;5090744;28;20059;-72
2023/12/17 01:28:23;;;;;;;16.38;8.38;;;;;;;;;;5091424;28;20397;-71
2023/12/17 01:30:49;;;;;;;22.15;10.13;;;;;;;;;;5091507;28;20052;-71
2023/12/17 01:33:16;;;;;;;16.77;8.77;;;;;;;;;;5091480;28;20063;-71
2023/12/17 01:35:43;;;;;;;19.45;8.98;;;;;;;;;;5090905;28;20130;-71
2023/12/17 01:38:10;;;;;;;16.88;7.57;;;;;;;;;;5090945;28;20044;-71
2023/12/17 01:40:39;;;;;;;14.25;7.40;;;;;;;;;;5090499;28;20051;-71
2023/12/17 01:43:09;;;;;;;18.70;9.35;;;;;;;;;;5091630;28;20063;-71
2023/12/17 01:45:35;;;;;;;18.60;8.25;;;;;;;;;;5090967;28;20412;-71
2023/12/17 01:48:02;;;;;;;17.60;8.25;;;;;;;;;;5091411;28;20044;-71
2023/12/17 01:50:30;;;;;;;12.65;7.03;;;;;;;;;;5090702;28;20124;-71
2023/12/17 01:52:58;;;;;;;15.23;8.10;;;;;;;;;;5089661;28;20052;-71
2023/12/17 01:55:27;;;;;;;17.17;8.68;;;;;;;;;;5090597;28;20055;-71
2023/12/17 01:57:54;;;;;;;21.08;8.73;;;;;;;;;;5090877;28;20048;-71
2023/12/17 02:00:21;;;;;;;19.95;8.38;;;;;;;;;;5091006;28;20576;-71
2023/12/17 02:02:48;;;;;;;15.57;8.13;;;;;;;;;;5090865;28;20128;-71
2023/12/17 02:05:15;;;;;;;16.50;8.20;;;;;;;;;;5090754;28;20040;-71
2023/12/17 02:07:42;;;;;;;15.20;7.82;;;;;;;;;;5090664;28;20048;-71
2023/12/17 02:10:09;;;;;;;16.30;7.60;;;;;;;;;;5089369;28;20115;-71
2023/12/17 02:12:36;;;;;;;16.90;7.30;;;;;;;;;;5090734;28;20055;-71
2023/12/17 02:15:02;;;;;;;15.93;8.18;;;;;;;;;;5090338;28;20044;-71
2023/12/17 02:17:31;;;;;;;14.70;7.75;;;;;;;;;;5090129;28;20150;-70
2023/12/17 02:19:58;;;;;;;15.50;8.15;;;;;;;;;;5090931;28;20119;-71
2023/12/17 02:22:26;;;;;;;15.63;8.40;;;;;;;;;;5090197;28;20048;-71
2023/12/17 02:24:53;;;;;;;19.52;8.43;;;;;;;;;;5090080;28;20611;-71
2023/12/17 02:27:22;;;;;;;15.80;8.32;;;;;;;;;;5090287;28;20094;-71
2023/12/17 02:29:53;;;;;;;17.55;7.63;;;;;;;;;;5090352;28;20535;-71
2023/12/17 02:32:21;;;;;;;19.75;9.23;;;;;;;;;;5090115;28;20106;-71
2023/12/17 02:34:49;;;;;;;19.08;8.05;;;;;;;;;;5090049;28;20093;-71
2023/12/17 02:37:16;;;;;;;15.32;7.50;;;;;;;;;;5090028;28;20108;-71
2023/12/17 02:39:43;;;;;;;17.55;8.55;;;;;;;;;;5090022;28;20054;-71
2023/12/17 02:42:10;;;;;;;22.90;9.57;;;;;;;;;;5089979;28;20051;-71
2023/12/17 02:44:36;;;;;;;17.80;8.90;;;;;;;;;;5090523;28;20048;-71
2023/12/17 02:47:03;;;;;;;15.45;8.93;;;;;;;;;;5089613;28;20044;-71
2023/12/17 02:49:31;;;;;;;14.27;7.80;;;;;;;;;;5090337;28;20137;-71
2023/12/17 02:51:58;;;;;;;12.88;6.70;;;;;;;;;;5089739;28;20125;-71
2023/12/17 02:54:25;;;;;;;14.65;7.95;;;;;;;;;;5089296;28;20113;-71
2023/12/17 02:56:52;;;;;;;11.82;6.70;;;;;;;;;;5089925;28;20051;-71
2023/12/17 02:59:19;;;;;;;14.77;7.45;;;;;;;;;;5089503;28;20511;-71
2023/12/17 03:01:45;;;;;;;16.75;7.88;;;;;;;;;;5088290;28;20079;-70
2023/12/17 03:04:13;;;;;;;15.82;7.82;;;;;;;;;;5089564;28;20109;-71
2023/12/17 03:06:40;;;;;;;16.20;7.95;;;;;;;;;;5089651;28;20094;-71
2023/12/17 03:09:06;;;;;;;14.48;7.15;;;;;;;;;;5089244;28;20047;-71
2023/12/17 03:11:34;;;;;;;13.48;7.30;;;;;;;;;;5089367;28;20117;-70
2023/12/17 03:14:00;;;;;;;12.63;6.57;;;;;;;;;;5089569;28;20051;-71
2023/12/17 03:16:28;;;;;;;13.38;7.43;;;;;;;;;;5089334;28;20048;-70
2023/12/17 03:18:55;;;;;;;13.77;7.15;;;;;;;;;;5089585;28;20044;-70
2023/12/17 03:21:26;;;;;;;14.90;7.45;;;;;;;;;;5089112;28;20059;-71
2023/12/17 03:23:53;;;;;;;16.77;7.65;;;;;;;;;;5088877;28;20044;-71
2023/12/17 03:26:21;;;;;;;14.40;6.75;;;;;;;;;;5088449;28;20048;-71
2023/12/17 03:28:48;;;;;;;15.82;7.43;;;;;;;;;;5089071;28;20512;-71
2023/12/17 03:31:16;;;;;;;15.00;6.70;;;;;;;;;;5089137;28;20139;-71
2023/12/17 03:33:46;;;;;;;14.68;6.63;;;;;;;;;;5088960;28;20048;-71
2023/12/17 03:36:14;;;;;;;13.18;6.53;;;;;;;;;;5089176;28;20122;-71
2023/12/17 03:38:45;;;;;;;16.20;6.55;;;;;;;;;;5088367;28;20059;-71
2023/12/17 03:41:25;;;;;;;12.80;6.30;;;;;;;;;;5089091;28;20048;-71
2023/12/17 03:43:54;;;;;;;14.05;6.85;;;;;;;;;;5089249;28;20043;-71
2023/12/17 03:46:22;;;;;;;12.93;6.82;;;;;;;;;;5089196;28;20055;-71
2023/12/17 03:48:49;;;;;;;13.98;5.60;;;;;;;;;;5088715;28;20531;-71
2023/12/17 03:51:17;;;;;;;12.98;6.47;;;;;;;;;;5089080;28;20044;-71
2023/12/17 03:53:43;;;;;;;13.57;7.13;;;;;;;;;;5088151;28;20130;-71
2023/12/17 03:56:12;;;;;;;15.05;7.20;;;;;;;;;;5088553;28;20631;-71
2023/12/17 03:58:39;;;;;;;14.80;6.90;;;;;;;;;;5088442;28;20048;-71
2023/12/17 04:01:07;;;;;;;14.85;7.15;;;;;;;;;;5088681;28;20047;-69
2023/12/17 04:03:34;;;;;;;15.95;6.82;;;;;;;;;;5085320;28;20078;-70
2023/12/17 04:06:05;;;;;;;14.23;6.68;;;;;;;;;;5078499;28;20070;-70
2023/12/17 04:08:32;;;;;;;11.65;6.57;;;;;;;;;;5087660;28;20040;-70
2023/12/17 04:10:58;;;;;;;11.95;6.30;;;;;;;;;;5087797;28;20071;-70
2023/12/17 04:13:25;;;;;;;13.02;7.20;;;;;;;;;;5087571;28;20583;-70
2023/12/17 04:15:52;;;;;;;9.88;5.20;;;;;;;;;;5090402;28;20097;-70
2023/12/17 04:18:18;;;;;;;9.50;4.68;;;;;;;;;;5092135;28;20040;-70
2023/12/17 04:20:45;;;;;;;10.00;5.80;;;;;;;;;;5092191;28;20036;-70
2023/12/17 04:23:12;;;;;;;10.18;5.15;;;;;;;;;;5092446;28;20070;-70
2023/12/17 04:25:39;;;;;;;10.90;5.35;;;;;;;;;;5091665;28;20060;-70
2023/12/17 04:28:05;;;;;;;10.52;5.10;;;;;;;;;;5092010;28;20052;-70
2023/12/17 04:30:32;;;;;;;12.07;6.18;;;;;;;;;;5091991;28;20040;-69
2023/12/17 04:32:59;;;;;;;11.90;5.05;;;;;;;;;;5091904;28;20071;-69
2023/12/17 04:35:26;;;;;;;10.65;5.40;;;;;;;;;;5091617;28;20134;-69
2023/12/17 04:37:53;;;;;;;13.82;5.75;;;;;;;;;;5092181;28;20056;-69
2023/12/17 04:40:19;;;;;;;10.45;5.47;;;;;;;;;;5091807;28;20101;-69
2023/12/17 04:42:46;;;;;;;10.30;5.28;;;;;;;;;;5092458;28;20044;-70
2023/12/17 04:45:13;;;;;;;11.00;5.85;;;;;;;;;;5092429;28;20044;-69
2023/12/17 04:47:40;;;;;;;12.60;5.30;;;;;;;;;;5091784;28;20056;-69
2023/12/17 04:50:07;;;;;;;10.60;5.35;;;;;;;;;;5091846;28;20155;-70
2023/12/17 04:52:34;;;;;;;9.38;4.40;;;;;;;;;;5091323;28;20048;-70
2023/12/17 04:55:03;;;;;;;9.07;4.70;;;;;;;;;;5091019;28;20174;-69
2023/12/17 04:57:30;;;;;;;10.23;4.60;;;;;;;;;;5091623;28;20040;-69
2023/12/17 04:59:57;;;;;;;10.15;5.15;;;;;;;;;;5088900;28;20039;-70
2023/12/17 05:02:23;;;;;;;10.13;5.10;;;;;;;;;;5091185;28;20036;-70
2023/12/17 05:04:50;;;;;;;7.65;4.38;;;;;;;;;;5091355;28;20076;-69
2023/12/17 05:07:17;;;;;;;7.50;3.90;;;;;;;;;;5088479;28;20044;-70
2023/12/17 05:09:44;;;;;;;9.18;4.32;;;;;;;;;;5090859;28;20040;-69
2023/12/17 05:12:10;;;;;;;7.90;4.10;;;;;;;;;;5091312;28;20062;-69
2023/12/17 05:14:37;;;;;;;8.52;4.70;;;;;;;;;;5090907;28;20071;-69
2023/12/17 05:17:04;;;;;;;8.85;4.57;;;;;;;;;;5091420;28;20044;-69
2023/12/17 05:19:30;;;;;;;8.60;4.10;;;;;;;;;;5090796;28;20122;-70
2023/12/17 05:21:58;;;;;;;8.98;4.95;;;;;;;;;;5091176;28;20075;-69
2023/12/17 05:24:24;;;;;;;9.63;4.35;;;;;;;;;;5090536;28;20059;-70
2023/12/17 05:26:51;;;;;;;11.25;4.68;;;;;;;;;;5091160;28;20043;-69
2023/12/17 05:29:18;;;;;;;7.75;3.97;;;;;;;;;;5090943;28;20568;-70
2023/12/17 05:31:44;;;;;;;10.20;5.15;;;;;;;;;;5091309;28;20070;-69
2023/12/17 05:34:11;;;;;;;8.60;4.68;;;;;;;;;;5090935;28;20048;-69
2023/12/17 05:36:38;;;;;;;13.80;5.53;;;;;;;;;;5091554;28;20055;-69
2023/12/17 05:39:05;;;;;;;11.63;5.03;;;;;;;;;;5090822;28;20044;-69
2023/12/17 05:41:32;;;;;;;8.35;4.45;;;;;;;;;;5091253;28;20464;-69
2023/12/17 05:43:59;;;;;;;10.23;4.15;;;;;;;;;;5090889;28;20052;-69
2023/12/17 05:46:26;;;;;;;10.23;4.82;;;;;;;;;;5091227;28;20044;-69
2023/12/17 05:48:53;;;;;;;8.30;4.50;;;;;;;;;;5090736;28;20048;-69
2023/12/17 05:51:20;;;;;;;8.15;4.50;;;;;;;;;;5091053;28;20052;-70
2023/12/17 05:53:47;;;;;;;8.75;4.20;;;;;;;;;;5090284;28;20044;-69
2023/12/17 05:56:14;;;;;;;6.75;3.67;;;;;;;;;;5090914;28;20131;-69
2023/12/17 05:58:41;;;;;;;6.40;3.47;;;;;;;;;;5090432;28;20416;-69
2023/12/17 06:01:08;;;;;;;8.77;3.67;;;;;;;;;;5091144;28;20048;-69
2023/12/17 06:03:37;;;;;;;7.63;3.63;;;;;;;;;;5090606;28;20602;-69
2023/12/17 06:06:06;;;;;;;6.70;3.60;;;;;;;;;;5091021;28;20040;-69
2023/12/17 06:08:33;;;;;;;5.45;2.72;;;;;;;;;;5090192;28;20051;-70
2023/12/17 06:10:59;;;;;;;7.45;3.05;;;;;;;;;;5089841;28;20047;-69
2023/12/17 06:13:26;;;;;;;6.03;3.05;;;;;;;;;;5090470;28;20052;-69
2023/12/17 06:15:54;;;;;;;5.85;3.13;;;;;;;;;;5090765;28;20052;-70
2023/12/17 06:18:20;;;;;;;6.70;3.55;;;;;;;;;;5090555;28;20055;-69
2023/12/17 06:20:47;;;;;;;6.10;3.20;;;;;;;;;;5090602;28;20040;-69
2023/12/17 06:23:14;;;;;;;5.32;2.88;;;;;;;;;;5090723;28;20067;-69
2023/12/17 06:25:41;;;;;;;8.55;3.88;;;;;;;;;;5089935;28;20048;-69
2023/12/17 06:28:08;;;;;;;8.05;4.30;;;;;;;;;;5088866;28;20040;-69
2023/12/17 06:30:35;;;;;;;7.18;3.63;;;;;;;;;;5089916;28;20048;-69
2023/12/17 06:33:02;;;;;;;6.68;3.33;;;;;;;;;;5090026;28;20051;-69
2023/12/17 06:35:29;;;;;;;5.40;2.90;;;;;;;;;;5089940;28;20165;-69
2023/12/17 06:37:56;;;;;;;7.38;3.78;;;;;;;;;;5089621;28;20044;-71
2023/12/17 06:40:23;;;;;;;5.45;3.10;;;;;;;;;;5089526;28;20054;-69
2023/12/17 06:42:49;;;;;;;5.65;2.55;;;;;;;;;;5089962;28;20044;-71
2023/12/17 06:45:16;;;;;;;5.75;3.47;;;;;;;;;;5089684;28;20573;-71
2023/12/17 06:47:44;;;;;;;4.70;2.92;;;;;;;;;;5089838;28;20044;-69
2023/12/17 06:50:12;;;;;;;5.10;2.78;;;;;;;;;;5089351;28;20048;-69
2023/12/17 06:52:39;;;;;;;4.50;2.75;;;;;;;;;;5089649;28;20063;-69
2023/12/17 06:55:06;;;;;;;5.85;3.08;;;;;;;;;;5089111;28;20079;-71
2023/12/17 06:57:33;;;;;;;5.32;2.70;;;;;;;;;;5089698;28;20496;-71
2023/12/17 07:00:00;;;;;;;5.38;2.65;;;;;;;;;;5089286;28;20047;-69
2023/12/17 07:02:27;;;;;;;3.75;2.28;;;;;;;;;;5089541;28;20080;-71
2023/12/17 07:04:53;;;;;;;5.03;2.65;;;;;;;;;;5088764;28;20071;-69
2023/12/17 07:07:20;;;;;;;4.97;2.80;;;;;;;;;;5088755;28;20508;-71
2023/12/17 07:09:47;;;;;;;5.45;3.17;;;;;;;;;;5088429;28;20040;-71
2023/12/17 07:12:13;;;;;;;4.93;2.88;;;;;;;;;;5089024;28;20047;-70
2023/12/17 07:14:40;;;;;;;5.10;2.90;;;;;;;;;;5088832;28;20055;-71
2023/12/17 07:17:07;;;;;;;4.40;2.60;;;;;;;;;;5089215;28;20048;-69
2023/12/17 07:19:34;;;;;;;4.35;2.55;;;;;;;;;;5085950;28;20044;-71
2023/12/17 07:22:01;;;;;;;6.18;3.53;;;;;;;;;;5088590;28;20044;-71
2023/12/17 07:24:28;;;;;;;5.43;2.75;;;;;;;;;;5087823;28;20101;-71
2023/12/17 07:26:55;;;;;;;5.72;2.95;;;;;;;;;;5085816;28;20047;-71
2023/12/17 07:29:21;;;;;;;4.20;2.50;;;;;;;;;;5088559;28;20043;-69
2023/12/17 07:31:48;;;;;;;5.95;3.03;;;;;;;;;;5088546;28;20399;-71
2023/12/17 07:34:15;;;;;;;6.28;3.50;;;;;;;;;;5085830;28;20044;-69
2023/12/17 07:36:47;;;;;;;6.10;3.17;;;;;;;;;;5089248;28;20124;-71
2023/12/17 07:39:14;;;;;;;7.30;3.38;;;;;;;;;;5088713;28;20036;-69
2023/12/17 07:41:40;;;;;;;5.65;2.80;;;;;;;;;;5088673;28;20560;-69
2023/12/17 07:44:07;;;;;;;7.40;3.35;;;;;;;;;;5088626;28;20055;-71
2023/12/17 07:46:34;;;;;;;6.25;3.50;;;;;;;;;;5088877;28;20055;-70
2023/12/17 07:49:00;;;;;;;6.20;3.30;;;;;;;;;;5088814;28;20056;-69
2023/12/17 07:51:27;;;;;;;4.50;2.60;;;;;;;;;;5070772;28;20079;-71
2023/12/17 07:53:54;;;;;;;4.90;2.90;;;;;;;;;;5088454;28;20044;-70
2023/12/17 07:56:21;;;;;;;5.85;3.25;;;;;;;;;;5088193;28;20488;-71
2023/12/17 07:58:48;;;;;;;5.65;3.17;;;;;;;;;;5089133;28;20158;-70
2023/12/17 08:01:14;;;;;;;6.10;3.20;;;;;;;;;;5088536;28;20127;-71
2023/12/17 08:03:43;;;;;;;6.65;3.00;;;;;;;;;;5088808;28;20044;-71
2023/12/17 08:06:10;;;;;;;7.15;3.50;;;;;;;;;;5088322;28;20050;-71
2023/12/17 08:08:37;;;;;;;6.35;3.28;;;;;;;;;;5070719;28;20045;-71
2023/12/17 08:11:03;;;;;;;6.68;3.38;;;;;;;;;;5088703;28;20068;-71
2023/12/17 08:13:30;;;;;;;6.85;3.90;;;;;;;;;;5088958;28;20051;-71
2023/12/17 08:15:58;;;;;;;6.93;3.70;;;;;;;;;;5088443;28;20411;-71
2023/12/17 08:18:24;;;;;;;7.57;3.65;;;;;;;;;;5088867;28;20124;-70
2023/12/17 08:20:51;;;;;;;6.65;3.60;;;;;;;;;;5088318;28;20048;-71
2023/12/17 08:23:18;;;;;;;8.18;3.83;;;;;;;;;;5088642;28;20048;-69
2023/12/17 08:25:45;;;;;;;7.93;3.95;;;;;;;;;;5087474;28;20442;-70
2023/12/17 08:28:12;;;;;;;8.48;4.20;;;;;;;;;;5088621;28;20048;-69
2023/12/17 08:30:39;;;;;;;9.18;4.70;;;;;;;;;;5088146;28;20052;-71
2023/12/17 08:33:06;;;;;;;8.48;4.45;;;;;;;;;;5088736;28;20044;-70
2023/12/17 08:35:36;;;;;;;9.70;4.50;;;;;;;;;;5088294;28;20048;-71
2023/12/17 08:38:05;;;;;;;8.48;4.43;;;;;;;;;;5088356;28;20051;-70
2023/12/17 08:40:33;;;;;;;7.82;4.43;;;;;;;;;;5088213;28;20052;-70
2023/12/17 08:43:01;;;;;;;10.93;4.80;;;;;;;;;;5088252;28;20055;-71
2023/12/17 08:45:28;;;;;;;7.75;4.22;;;;;;;;;;5087829;28;20526;-71
2023/12/17 08:47:54;;;;;;;6.53;3.33;;;;;;;;;;5088568;28;20177;-71
2023/12/17 08:50:22;;;;;;;9.43;4.75;;;;;;;;;;5087978;28;20044;-71
2023/12/17 08:52:48;;;;;;;8.10;3.95;;;;;;;;;;5088529;28;20048;-71
2023/12/17 08:55:17;;;;;;;10.25;4.50;;;;;;;;;;5087597;28;20067;-70
2023/12/17 08:57:44;;;;;;;11.15;5.05;;;;;;;;;;5088246;28;20080;-70
2023/12/17 09:00:12;;;;;;;10.20;4.88;;;;;;;;;;5087802;28;20070;-71
2023/12/17 09:02:39;;;;;;;10.88;4.22;;;;;;;;;;5091574;28;20135;-71
2023/12/17 09:05:09;;;;;;;10.48;5.00;;;;;;;;;;5073808;28;20048;-70
2023/12/17 09:07:38;;;;;;;8.02;4.32;;;;;;;;;;5092260;28;20078;-71
2023/12/17 09:10:09;;;;;;;9.45;4.10;;;;;;;;;;5091839;28;20078;-71
2023/12/17 09:12:38;;;;;;;10.30;4.57;;;;;;;;;;5091999;28;20047;-71
2023/12/17 09:15:05;;;;;;;8.90;4.07;;;;;;;;;;5091694;28;20051;-71
2023/12/17 09:17:32;;;;;;;9.70;4.45;;;;;;;;;;5091931;28;20075;-71
2023/12/17 09:19:58;;;;;;;10.73;4.90;;;;;;;;;;5091458;28;20052;-70
2023/12/17 09:22:25;;;;;;;8.57;4.22;;;;;;;;;;5091459;28;20582;-71
2023/12/17 09:24:52;;;;;;;7.75;4.20;;;;;;;;;;5090976;28;20563;-71
2023/12/17 09:27:19;;;;;;;8.60;4.10;;;;;;;;;;5091704;28;20044;-70
2023/12/17 09:29:46;;;;;;;10.45;4.20;;;;;;;;;;5091639;28;20047;-71
2023/12/17 09:32:13;;;;;;;9.30;4.80;;;;;;;;;;5091163;28;20491;-70
2023/12/17 09:34:39;;;;;;;12.00;5.22;;;;;;;;;;5091329;28;20127;-71
2023/12/17 09:37:06;;;;;;;11.07;5.63;;;;;;;;;;5091380;28;20109;-70
2023/12/17 09:39:33;;;;;;;11.60;5.45;;;;;;;;;;5091198;28;20044;-70
2023/12/17 09:42:00;;;;;;;12.13;5.45;;;;;;;;;;5090810;28;20044;-71
2023/12/17 09:44:27;;;;;;;10.50;4.88;;;;;;;;;;5091172;28;20079;-70
2023/12/17 09:46:53;;;;;;;12.65;5.47;;;;;;;;;;5091300;28;20047;-70
2023/12/17 09:49:21;;;;;;;9.98;5.10;;;;;;;;;;5090953;28;20044;-70
2023/12/17 09:51:57;;;;;;;11.35;5.82;;;;;;;;;;5090817;28;20198;-70
2023/12/17 09:54:23;;;;;;;11.35;5.45;;;;;;;;;;5090737;28;20052;-70
2023/12/17 09:56:53;;;;;;;13.20;5.93;;;;;;;;;;5090733;28;20649;-70
2023/12/17 09:59:22;;;;;;;9.98;4.55;;;;;;;;;;5073272;28;20048;-70
2023/12/17 10:01:51;;;;;;;10.90;5.68;;;;;;;;;;5090443;28;20040;-70
2023/12/17 10:04:25;;;;;;;12.75;6.45;;;;;;;;;;5090994;28;20044;-70
2023/12/17 10:06:52;;;;;;;10.43;5.25;;;;;;;;;;5090711;28;20048;-70
2023/12/17 10:09:19;;;;;;;13.45;6.53;;;;;;;;;;5090718;28;20054;-70
2023/12/17 10:11:47;;;;;;;13.50;6.93;;;;;;;;;;5090136;28;20587;-70
2023/12/17 10:14:24;;;;;;;13.18;5.95;;;;;;;;;;5090085;28;20044;-70
2023/12/17 10:16:51;;;;;;;12.43;6.13;;;;;;;;;;5090365;28;20051;-70
2023/12/17 10:19:18;;;;;;;13.65;6.45;;;;;;;;;;5090691;28;20128;-70
2023/12/17 10:21:46;;;;;;;13.27;6.60;;;;;;;;;;5090239;28;20130;-70
2023/12/17 10:24:13;;;;;;;14.73;7.20;;;;;;;;;;5089765;28;20052;-70
2023/12/17 10:26:44;;;;;;;14.20;6.07;;;;;;;;;;5089982;28;20130;-69
2023/12/17 10:29:16;;;;;;;11.35;5.15;;;;;;;;;;5090414;28;20079;-70
2023/12/17 10:31:44;;;;;;;13.20;6.22;;;;;;;;;;5090150;28;20075;-69
2023/12/17 10:34:19;;;;;;;12.82;7.00;;;;;;;;;;5090247;28;20475;-70
2023/12/17 10:36:50;;;;;;;17.48;7.90;;;;;;;;;;5072294;28;20048;-70
2023/12/17 10:39:20;;;;;;;15.18;7.43;;;;;;;;;;5089110;28;20622;-70
2023/12/17 10:41:47;;;;;;;15.32;7.07;;;;;;;;;;5089247;28;20042;-70
2023/12/17 10:44:15;;;;;;;14.10;6.55;;;;;;;;;;5089228;28;20101;-70
2023/12/17 10:46:43;;;;;;;21.20;8.40;;;;;;;;;;5089295;28;20684;-70
2023/12/17 10:49:15;;;;;;;17.52;8.18;;;;;;;;;;5086880;28;20048;-70
2023/12/17 10:51:43;;;;;;;19.73;8.60;;;;;;;;;;5089541;28;20036;-70
2023/12/17 10:54:11;;;;;;;14.20;7.38;;;;;;;;;;5086450;28;20040;-70
2023/12/17 10:56:46;;;;;;;20.23;9.23;;;;;;;;;;5088806;28;20044;-69
2023/12/17 10:59:24;;;;;;;16.70;7.63;;;;;;;;;;5077559;28;20044;-70
2023/12/17 11:02:05;;;;;;;18.35;7.68;;;;;;;;;;5088463;28;20155;-70
2023/12/17 11:04:32;;;;;;;12.70;6.68;;;;;;;;;;5086995;28;20044;-70
2023/12/17 11:06:59;;;;;;;15.55;7.38;;;;;;;;;;5089061;28;20048;-70
2023/12/17 11:09:25;;;;;;;18.73;8.13;;;;;;;;;;5089059;28;20044;-70
2023/12/17 11:11:53;;;;;;;13.63;6.70;;;;;;;;;;5089136;28;20080;-70
2023/12/17 11:14:20;;;;;;;18.50;8.63;;;;;;;;;;5089350;28;20048;-70
2023/12/17 11:16:49;;;;;;;19.85;8.32;;;;;;;;;;5088911;28;20048;-70
2023/12/17 11:19:16;;;;;;;15.98;7.50;;;;;;;;;;5089518;28;20130;-70
2023/12/17 11:21:46;;;;;;;15.60;7.53;;;;;;;;;;5088865;28;20135;-70
2023/12/17 11:24:19;;;;;;;16.98;8.35;;;;;;;;;;5071246;28;20243;-70
2023/12/17 11:26:48;;;;;;;15.93;7.20;;;;;;;;;;5088852;28;20523;-71
2023/12/17 11:29:34;;;;;;;13.95;6.93;;;;;;;;;;5089478;28;20063;-70
2023/12/17 11:32:01;;;;;;;15.90;8.18;;;;;;;;;;5070887;28;20565;-70
2023/12/17 11:34:30;;;;;;;19.17;9.13;;;;;;;;;;5089353;28;20043;-71
2023/12/17 11:36:59;;;;;;;19.52;9.18;;;;;;;;;;5088677;28;20048;-71
2023/12/17 11:39:30;;;;;;;16.38;8.52;;;;;;;;;;5088582;28;20044;-70
2023/12/17 11:41:59;;;;;;;13.98;7.53;;;;;;;;;;5088413;28;20097;-72
2023/12/17 11:44:26;;;;;;;17.02;8.40;;;;;;;;;;5089089;28;20157;-70
2023/12/17 11:46:53;;;;;;;14.73;7.97;;;;;;;;;;5089070;28;20056;-70
2023/12/17 11:49:24;;;;;;;13.93;7.53;;;;;;;;;;5089239;28;20044;-70
2023/12/17 11:51:52;;;;;;;17.17;9.00;;;;;;;;;;5088666;28;20067;-70
2023/12/17 11:54:26;;;;;;;15.23;8.48;;;;;;;;;;5088566;28;20040;-71
2023/12/17 11:56:52;;;;;;;16.10;8.07;;;;;;;;;;5088245;28;20113;-70
2023/12/17 11:59:33;;;;;;;11.68;6.82;;;;;;;;;;5088482;28;20082;-71
2023/12/17 12:02:01;;;;;;;12.80;7.40;;;;;;;;;;5088571;28;20044;-70
2023/12/17 12:04:41;;;;;;;13.45;7.60;;;;;;;;;;5088719;28;20618;-70
2023/12/17 12:07:08;;;;;;;9.70;5.95;;;;;;;;;;5088803;28;20054;-71
2023/12/17 12:09:35;;;;;;;12.73;7.15;;;;;;;;;;5088493;28;20044;-71
2023/12/17 12:12:14;;;;;;;14.52;6.85;;;;;;;;;;5088104;28;20458;-71
2023/12/17 12:14:40;;;;;;;11.63;6.60;;;;;;;;;;5088376;28;20511;-71
2023/12/17 12:17:07;;;;;;;11.00;6.05;;;;;;;;;;5088362;28;20048;-71
2023/12/17 12:19:47;;;;;;;9.95;5.97;;;;;;;;;;5088689;28;20048;-71
2023/12/17 12:22:14;;;;;;;9.57;6.10;;;;;;;;;;5088425;28;20082;-71
2023/12/17 12:24:42;;;;;;;9.52;5.80;;;;;;;;;;5087940;28;20526;-71
2023/12/17 12:27:09;;;;;;;8.25;5.43;;;;;;;;;;5088672;28;20051;-71
2023/12/17 12:29:39;;;;;;;7.93;5.10;;;;;;;;;;5088440;28;20106;-70
2023/12/17 12:32:07;;;;;;;10.50;5.47;;;;;;;;;;5088200;28;20040;-71
2023/12/17 12:34:35;;;;;;;8.23;4.75;;;;;;;;;;5088132;28;20044;-71
2023/12/17 12:37:02;;;;;;;10.27;6.45;;;;;;;;;;5090959;28;20056;-71
2023/12/17 12:39:30;;;;;;;9.60;6.00;;;;;;;;;;5092137;28;20134;-71
2023/12/17 12:42:18;;;;;;;11.15;6.53;;;;;;;;;;5092097;28;20775;-71
2023/12/17 12:44:45;;;;;;;11.23;6.32;;;;;;;;;;5092340;28;20044;-71
2023/12/17 12:47:12;;;;;;;10.13;6.45;;;;;;;;;;5092273;28;20109;-71
2023/12/17 12:49:38;;;;;;;10.98;5.97;;;;;;;;;;5091970;28;20048;-71
2023/12/17 12:52:05;;;;;;;11.63;6.65;;;;;;;;;;5092089;28;20048;-71
2023/12/17 12:54:32;;;;;;;10.95;6.53;;;;;;;;;;5091718;28;20120;-71
2023/12/17 12:56:59;;;;;;;10.70;6.30;;;;;;;;;;5092103;28;20055;-71
2023/12/17 12:59:26;;;;;;;11.60;6.03;;;;;;;;;;5091631;28;20523;-71
2023/12/17 13:01:55;;;;;;;12.90;7.07;;;;;;;;;;5091876;28;20495;-71
2023/12/17 13:04:22;;;;;;;11.45;7.05;;;;;;;;;;5091750;28;20044;-71
2023/12/17 13:06:51;;;;;;;13.43;7.30;;;;;;;;;;5091624;28;20082;-71
2023/12/17 13:09:18;;;;;;;12.75;6.55;;;;;;;;;;5090835;28;20051;-71
2023/12/17 13:11:49;;;;;;;13.23;7.57;;;;;;;;;;5091439;28;20040;-71
2023/12/17 13:14:17;;;;;;;13.43;7.78;;;;;;;;;;5088149;28;20090;-71
2023/12/17 13:16:44;;;;;;;13.05;7.57;;;;;;;;;;5090944;28;20052;-71
2023/12/17 13:19:11;;;;;;;13.57;7.55;;;;;;;;;;5090863;28;20040;-71
2023/12/17 13:21:41;;;;;;;15.70;8.70;;;;;;;;;;5091077;28;20122;-71
2023/12/17 13:24:08;;;;;;;16.45;8.05;;;;;;;;;;5090270;28;20048;-71
2023/12/17 13:26:37;;;;;;;15.32;8.25;;;;;;;;;;5088499;28;20119;-71
2023/12/17 13:29:04;;;;;;;15.00;8.23;;;;;;;;;;5090633;28;20052;-71
2023/12/17 13:31:30;;;;;;;16.33;8.43;;;;;;;;;;5090979;28;20040;-71
2023/12/17 13:33:57;;;;;;;12.82;7.38;;;;;;;;;;5090462;28;20048;-71
2023/12/17 13:36:24;;;;;;;13.13;7.20;;;;;;;;;;5090699;28;20052;-71
2023/12/17 13:38:50;;;;;;;12.82;7.13;;;;;;;;;;5090807;28;20047;-71
2023/12/17 13:41:17;;;;;;;13.00;7.28;;;;;;;;;;5091281;28;20060;-71
2023/12/17 13:43:44;;;;;;;15.55;8.50;;;;;;;;;;5090766;28;20562;-70
2023/12/17 13:46:10;;;;;;;14.43;8.43;;;;;;;;;;5091272;28;20048;-71
2023/12/17 13:48:37;;;;;;;12.93;6.97;;;;;;;;;;5090377;28;20040;-71
2023/12/17 13:51:04;;;;;;;14.68;7.25;;;;;;;;;;5091280;28;20147;-71
2023/12/17 13:53:31;;;;;;;12.18;6.93;;;;;;;;;;5090640;28;20048;-71
2023/12/17 13:55:59;;;;;;;13.57;6.97;;;;;;;;;;5090857;28;20413;-71
2023/12/17 13:58:27;;;;;;;12.73;6.95;;;;;;;;;;5090838;28;20877;-71
2023/12/17 14:00:53;;;;;;;12.07;6.97;;;;;;;;;;5090949;28;20048;-71
2023/12/17 14:03:24;;;;;;;12.70;7.00;;;;;;;;;;5090724;28;20162;-71
2023/12/17 14:05:51;;;;;;;12.90;6.97;;;;;;;;;;5090866;28;20450;-70
2023/12/17 14:08:18;;;;;;;11.65;6.70;;;;;;;;;;5090328;28;20121;-71
2023/12/17 14:10:44;;;;;;;12.35;7.20;;;;;;;;;;5090584;28;20041;-71
2023/12/17 14:13:11;;;;;;;14.20;7.32;;;;;;;;;;5090782;28;20078;-71
2023/12/17 14:15:38;;;;;;;12.68;7.05;;;;;;;;;;5090264;28;20054;-71
2023/12/17 14:18:05;;;;;;;12.15;6.80;;;;;;;;;;5090731;28;20155;-70
2023/12/17 14:20:32;;;;;;;9.85;6.15;;;;;;;;;;5090412;28;20074;-71
2023/12/17 14:22:58;;;;;;;11.20;6.85;;;;;;;;;;5090078;28;20415;-71
2023/12/17 14:25:25;;;;;;;13.75;7.30;;;;;;;;;;5089588;28;20528;-71
2023/12/17 14:27:53;;;;;;;12.98;6.57;;;;;;;;;;5090503;28;20144;-71
2023/12/17 14:30:19;;;;;;;11.43;6.00;;;;;;;;;;5090121;28;20044;-71
2023/12/17 14:32:46;;;;;;;12.98;6.55;;;;;;;;;;5090445;28;20076;-71
2023/12/17 14:35:13;;;;;;;9.80;6.15;;;;;;;;;;5090279;28;20047;-71